sensor_id;sensor_type;location;lat;lon;timestamp;P1;durP1;ratioP1;P2;durP2;ratioP2
76636;SDS011;65532;52.124;5.480;2024-01-30T00:00:44;9.40;;;4.93;;
76636;SDS011;65532;52.124;5.480;2024-01-30T00:03:11;9.35;;;4.03;;
76636;SDS011;65532;52.124;5.480;2024-01-30T00:05:37;11.38;;;4.78;;
76636;SDS011;65532;52.124;5.480;2024-01-30T00:08:04;9.95;;;4.47;;
76636;SDS011;65532;52.124;5.480;2024-01-30T00:10:30;10.35;;;4.20;;
76636;SDS011;65532;52.124;5.480;2024-01-30T00:12:57;9.10;;;4.00;;
76636;SDS011;65532;52.124;5.480;2024-01-30T00:15:24;12.55;;;4.38;;
76636;SDS011;65532;52.124;5.480;2024-01-30T00:17:50;9.63;;;4.10;;
76636;SDS011;65532;52.124;5.480;2024-01-30T00:20:20;9.57;;;4.43;;
76636;SDS011;65532;52.124;5.480;2024-01-30T00:22:47;8.18;;;4.50;;
76636;SDS011;65532;52.124;5.480;2024-01-30T00:25:13;8.65;;;4.30;;
76636;SDS011;65532;52.124;5.480;2024-01-30T00:27:40;12.15;;;4.78;;
76636;SDS011;65532;52.124;5.480;2024-01-30T00:30:07;8.05;;;3.53;;
76636;SDS011;65532;52.124;5.480;2024-01-30T00:32:34;9.48;;;3.83;;
76636;SDS011;65532;52.124;5.480;2024-01-30T00:35:01;8.65;;;4.38;;
76636;SDS011;65532;52.124;5.480;2024-01-30T00:37:28;8.88;;;4.18;;
76636;SDS011;65532;52.124;5.480;2024-01-30T00:39:54;8.23;;;4.18;;
76636;SDS011;65532;52.124;5.480;2024-01-30T00:42:21;8.80;;;4.03;;
76636;SDS011;65532;52.124;5.480;2024-01-30T00:44:50;8.07;;;3.55;;
76636;SDS011;65532;52.124;5.480;2024-01-30T00:47:16;8.38;;;3.28;;
76636;SDS011;65532;52.124;5.480;2024-01-30T00:49:43;8.57;;;3.50;;
76636;SDS011;65532;52.124;5.480;2024-01-30T00:52:09;6.72;;;3.08;;
76636;SDS011;65532;52.124;5.480;2024-01-30T00:54:36;8.13;;;4.07;;
76636;SDS011;65532;52.124;5.480;2024-01-30T00:57:03;8.35;;;3.42;;
76636;SDS011;65532;52.124;5.480;2024-01-30T00:59:30;9.05;;;4.18;;
76636;SDS011;65532;52.124;5.480;2024-01-30T01:01:56;6.10;;;3.65;;
76636;SDS011;65532;52.124;5.480;2024-01-30T01:04:23;7.47;;;4.05;;
76636;SDS011;65532;52.124;5.480;2024-01-30T01:06:49;7.13;;;3.13;;
76636;SDS011;65532;52.124;5.480;2024-01-30T01:09:16;8.27;;;4.13;;
76636;SDS011;65532;52.124;5.480;2024-01-30T01:11:43;7.40;;;3.38;;
76636;SDS011;65532;52.124;5.480;2024-01-30T01:14:09;6.07;;;3.17;;
76636;SDS011;65532;52.124;5.480;2024-01-30T01:16:36;7.63;;;3.53;;
76636;SDS011;65532;52.124;5.480;2024-01-30T01:19:03;7.43;;;3.75;;
76636;SDS011;65532;52.124;5.480;2024-01-30T01:21:30;7.90;;;3.22;;
76636;SDS011;65532;52.124;5.480;2024-01-30T01:23:57;7.65;;;3.33;;
76636;SDS011;65532;52.124;5.480;2024-01-30T01:26:24;11.15;;;4.07;;
76636;SDS011;65532;52.124;5.480;2024-01-30T01:28:50;5.80;;;3.50;;
76636;SDS011;65532;52.124;5.480;2024-01-30T01:31:17;9.10;;;4.28;;
76636;SDS011;65532;52.124;5.480;2024-01-30T01:33:44;6.93;;;3.88;;
76636;SDS011;65532;52.124;5.480;2024-01-30T01:36:11;6.88;;;3.28;;
76636;SDS011;65532;52.124;5.480;2024-01-30T01:38:39;7.47;;;3.15;;
76636;SDS011;65532;52.124;5.480;2024-01-30T01:41:06;12.13;;;4.32;;
76636;SDS011;65532;52.124;5.480;2024-01-30T01:43:32;7.15;;;2.72;;
76636;SDS011;65532;52.124;5.480;2024-01-30T01:45:59;6.20;;;3.35;;
76636;SDS011;65532;52.124;5.480;2024-01-30T01:48:25;5.95;;;2.85;;
76636;SDS011;65532;52.124;5.480;2024-01-30T01:50:53;8.43;;;3.53;;
76636;SDS011;65532;52.124;5.480;2024-01-30T01:53:20;8.18;;;3.80;;
76636;SDS011;65532;52.124;5.480;2024-01-30T01:55:46;8.00;;;3.60;;
76636;SDS011;65532;52.124;5.480;2024-01-30T01:58:14;7.07;;;3.78;;
76636;SDS011;65532;52.124;5.480;2024-01-30T02:00:41;5.45;;;2.90;;
76636;SDS011;65532;52.124;5.480;2024-01-30T02:03:09;7.28;;;3.35;;
76636;SDS011;65532;52.124;5.480;2024-01-30T02:05:38;7.45;;;3.85;;
76636;SDS011;65532;52.124;5.480;2024-01-30T02:08:05;10.38;;;3.95;;
76636;SDS011;65532;52.124;5.480;2024-01-30T02:10:33;5.63;;;2.67;;
76636;SDS011;65532;52.124;5.480;2024-01-30T02:13:00;8.27;;;4.13;;
76636;SDS011;65532;52.124;5.480;2024-01-30T02:15:27;5.78;;;2.80;;
76636;SDS011;65532;52.124;5.480;2024-01-30T02:17:55;6.05;;;2.45;;
76636;SDS011;65532;52.124;5.480;2024-01-30T02:20:22;9.32;;;3.67;;
76636;SDS011;65532;52.124;5.480;2024-01-30T02:22:52;11.15;;;3.35;;
76636;SDS011;65532;52.124;5.480;2024-01-30T02:25:20;6.88;;;3.15;;
76636;SDS011;65532;52.124;5.480;2024-01-30T02:27:55;5.65;;;3.08;;
76636;SDS011;65532;52.124;5.480;2024-01-30T02:30:22;6.68;;;3.55;;
76636;SDS011;65532;52.124;5.480;2024-01-30T02:32:48;5.40;;;2.65;;
76636;SDS011;65532;52.124;5.480;2024-01-30T02:35:15;8.93;;;3.47;;
76636;SDS011;65532;52.124;5.480;2024-01-30T02:37:42;9.38;;;4.45;;
76636;SDS011;65532;52.124;5.480;2024-01-30T02:40:08;7.82;;;3.38;;
76636;SDS011;65532;52.124;5.480;2024-01-30T02:42:35;7.05;;;2.58;;
76636;SDS011;65532;52.124;5.480;2024-01-30T02:45:01;10.30;;;3.90;;
76636;SDS011;65532;52.124;5.480;2024-01-30T02:47:27;7.20;;;3.22;;
76636;SDS011;65532;52.124;5.480;2024-01-30T02:49:54;8.30;;;4.03;;
76636;SDS011;65532;52.124;5.480;2024-01-30T02:52:22;7.72;;;4.28;;
76636;SDS011;65532;52.124;5.480;2024-01-30T02:54:48;11.23;;;4.63;;
76636;SDS011;65532;52.124;5.480;2024-01-30T02:57:15;9.57;;;4.63;;
76636;SDS011;65532;52.124;5.480;2024-01-30T02:59:41;11.20;;;5.75;;
76636;SDS011;65532;52.124;5.480;2024-01-30T03:02:08;9.85;;;4.95;;
76636;SDS011;65532;52.124;5.480;2024-01-30T03:04:34;10.57;;;4.65;;
76636;SDS011;65532;52.124;5.480;2024-01-30T03:07:01;9.85;;;4.65;;
76636;SDS011;65532;52.124;5.480;2024-01-30T03:09:28;13.38;;;5.75;;
76636;SDS011;65532;52.124;5.480;2024-01-30T03:11:54;11.73;;;5.85;;
76636;SDS011;65532;52.124;5.480;2024-01-30T03:14:21;10.27;;;4.70;;
76636;SDS011;65532;52.124;5.480;2024-01-30T03:16:47;11.32;;;6.32;;
76636;SDS011;65532;52.124;5.480;2024-01-30T03:19:14;10.52;;;5.57;;
76636;SDS011;65532;52.124;5.480;2024-01-30T03:21:40;10.27;;;5.28;;
76636;SDS011;65532;52.124;5.480;2024-01-30T03:24:07;10.05;;;4.78;;
76636;SDS011;65532;52.124;5.480;2024-01-30T03:26:33;11.20;;;4.68;;
76636;SDS011;65532;52.124;5.480;2024-01-30T03:29:00;9.43;;;4.95;;
76636;SDS011;65532;52.124;5.480;2024-01-30T03:31:26;8.07;;;4.00;;
76636;SDS011;65532;52.124;5.480;2024-01-30T03:33:53;11.65;;;4.75;;
76636;SDS011;65532;52.124;5.480;2024-01-30T03:36:20;8.55;;;4.85;;
76636;SDS011;65532;52.124;5.480;2024-01-30T03:38:46;10.20;;;4.65;;
76636;SDS011;65532;52.124;5.480;2024-01-30T03:41:13;12.07;;;4.28;;
76636;SDS011;65532;52.124;5.480;2024-01-30T03:43:40;9.40;;;4.35;;
76636;SDS011;65532;52.124;5.480;2024-01-30T03:46:06;7.78;;;4.55;;
76636;SDS011;65532;52.124;5.480;2024-01-30T03:48:33;6.63;;;4.00;;
76636;SDS011;65532;52.124;5.480;2024-01-30T03:51:00;9.40;;;3.97;;
76636;SDS011;65532;52.124;5.480;2024-01-30T03:53:26;7.07;;;3.60;;
76636;SDS011;65532;52.124;5.480;2024-01-30T03:55:53;8.40;;;3.55;;
76636;SDS011;65532;52.124;5.480;2024-01-30T03:58:19;6.85;;;2.97;;
76636;SDS011;65532;52.124;5.480;2024-01-30T04:00:46;7.43;;;3.80;;
76636;SDS011;65532;52.124;5.480;2024-01-30T04:03:14;8.00;;;3.60;;
76636;SDS011;65532;52.124;5.480;2024-01-30T04:05:41;8.63;;;4.10;;
76636;SDS011;65532;52.124;5.480;2024-01-30T04:08:08;8.43;;;3.28;;
76636;SDS011;65532;52.124;5.480;2024-01-30T04:10:35;6.30;;;3.13;;
76636;SDS011;65532;52.124;5.480;2024-01-30T04:13:02;9.68;;;3.97;;
76636;SDS011;65532;52.124;5.480;2024-01-30T04:15:28;6.78;;;3.13;;
76636;SDS011;65532;52.124;5.480;2024-01-30T04:17:58;7.30;;;2.95;;
76636;SDS011;65532;52.124;5.480;2024-01-30T04:20:25;6.80;;;2.75;;
76636;SDS011;65532;52.124;5.480;2024-01-30T04:22:52;9.77;;;3.17;;
76636;SDS011;65532;52.124;5.480;2024-01-30T04:25:18;8.25;;;3.40;;
76636;SDS011;65532;52.124;5.480;2024-01-30T04:27:45;6.07;;;2.38;;
76636;SDS011;65532;52.124;5.480;2024-01-30T04:30:12;7.78;;;3.60;;
76636;SDS011;65532;52.124;5.480;2024-01-30T04:32:39;6.38;;;2.45;;
76636;SDS011;65532;52.124;5.480;2024-01-30T04:35:05;6.82;;;2.83;;
76636;SDS011;65532;52.124;5.480;2024-01-30T04:37:37;6.43;;;3.30;;
76636;SDS011;65532;52.124;5.480;2024-01-30T04:40:03;7.55;;;3.45;;
76636;SDS011;65532;52.124;5.480;2024-01-30T04:42:31;8.27;;;3.40;;
76636;SDS011;65532;52.124;5.480;2024-01-30T04:44:58;7.13;;;3.53;;
76636;SDS011;65532;52.124;5.480;2024-01-30T04:47:24;5.53;;;2.17;;
76636;SDS011;65532;52.124;5.480;2024-01-30T04:49:51;6.70;;;3.08;;
76636;SDS011;65532;52.124;5.480;2024-01-30T04:52:18;6.53;;;2.72;;
76636;SDS011;65532;52.124;5.480;2024-01-30T04:54:44;5.45;;;3.03;;
76636;SDS011;65532;52.124;5.480;2024-01-30T04:57:11;6.65;;;3.20;;
76636;SDS011;65532;52.124;5.480;2024-01-30T04:59:38;8.63;;;3.10;;
76636;SDS011;65532;52.124;5.480;2024-01-30T05:02:05;8.13;;;3.20;;
76636;SDS011;65532;52.124;5.480;2024-01-30T05:04:31;5.40;;;2.75;;
76636;SDS011;65532;52.124;5.480;2024-01-30T05:06:58;7.65;;;3.78;;
76636;SDS011;65532;52.124;5.480;2024-01-30T05:09:25;9.93;;;3.30;;
76636;SDS011;65532;52.124;5.480;2024-01-30T05:11:51;10.77;;;3.22;;
76636;SDS011;65532;52.124;5.480;2024-01-30T05:14:18;6.85;;;3.55;;
76636;SDS011;65532;52.124;5.480;2024-01-30T05:16:44;4.38;;;2.30;;
76636;SDS011;65532;52.124;5.480;2024-01-30T05:19:13;5.40;;;3.13;;
76636;SDS011;65532;52.124;5.480;2024-01-30T05:21:40;7.93;;;3.75;;
76636;SDS011;65532;52.124;5.480;2024-01-30T05:24:07;7.78;;;2.85;;
76636;SDS011;65532;52.124;5.480;2024-01-30T05:26:36;7.15;;;2.97;;
76636;SDS011;65532;52.124;5.480;2024-01-30T05:29:02;12.00;;;3.53;;
76636;SDS011;65532;52.124;5.480;2024-01-30T05:31:29;7.75;;;3.15;;
76636;SDS011;65532;52.124;5.480;2024-01-30T05:33:56;7.05;;;3.17;;
76636;SDS011;65532;52.124;5.480;2024-01-30T05:36:23;10.90;;;3.28;;
76636;SDS011;65532;52.124;5.480;2024-01-30T05:38:50;7.50;;;3.30;;
76636;SDS011;65532;52.124;5.480;2024-01-30T05:41:16;6.55;;;3.10;;
76636;SDS011;65532;52.124;5.480;2024-01-30T05:43:42;4.30;;;2.88;;
76636;SDS011;65532;52.124;5.480;2024-01-30T05:46:09;7.00;;;3.17;;
76636;SDS011;65532;52.124;5.480;2024-01-30T05:48:36;9.60;;;4.50;;
76636;SDS011;65532;52.124;5.480;2024-01-30T05:51:02;7.95;;;3.55;;
76636;SDS011;65532;52.124;5.480;2024-01-30T05:53:30;7.28;;;3.75;;
76636;SDS011;65532;52.124;5.480;2024-01-30T05:55:57;6.82;;;3.20;;
76636;SDS011;65532;52.124;5.480;2024-01-30T05:58:23;7.30;;;3.97;;
76636;SDS011;65532;52.124;5.480;2024-01-30T06:00:50;10.45;;;3.40;;
76636;SDS011;65532;52.124;5.480;2024-01-30T06:03:17;8.40;;;3.38;;
76636;SDS011;65532;52.124;5.480;2024-01-30T06:05:43;11.18;;;3.20;;
76636;SDS011;65532;52.124;5.480;2024-01-30T06:08:09;7.07;;;2.75;;
76636;SDS011;65532;52.124;5.480;2024-01-30T06:10:36;4.90;;;2.78;;
76636;SDS011;65532;52.124;5.480;2024-01-30T06:13:03;5.32;;;3.17;;
76636;SDS011;65532;52.124;5.480;2024-01-30T06:15:29;7.28;;;3.72;;
76636;SDS011;65532;52.124;5.480;2024-01-30T06:17:56;6.60;;;2.88;;
76636;SDS011;65532;52.124;5.480;2024-01-30T06:20:23;7.40;;;2.67;;
76636;SDS011;65532;52.124;5.480;2024-01-30T06:22:49;8.88;;;2.90;;
76636;SDS011;65532;52.124;5.480;2024-01-30T06:25:16;8.45;;;4.10;;
76636;SDS011;65532;52.124;5.480;2024-01-30T06:27:43;6.55;;;3.58;;
76636;SDS011;65532;52.124;5.480;2024-01-30T06:30:09;8.65;;;3.72;;
76636;SDS011;65532;52.124;5.480;2024-01-30T06:32:36;9.30;;;3.70;;
76636;SDS011;65532;52.124;5.480;2024-01-30T06:35:03;6.72;;;2.75;;
76636;SDS011;65532;52.124;5.480;2024-01-30T06:37:30;9.65;;;4.20;;
76636;SDS011;65532;52.124;5.480;2024-01-30T06:39:57;9.02;;;3.03;;
76636;SDS011;65532;52.124;5.480;2024-01-30T06:42:23;6.70;;;3.40;;
76636;SDS011;65532;52.124;5.480;2024-01-30T06:44:50;7.55;;;2.72;;
76636;SDS011;65532;52.124;5.480;2024-01-30T06:47:16;6.50;;;3.58;;
76636;SDS011;65532;52.124;5.480;2024-01-30T06:49:43;7.60;;;3.72;;
76636;SDS011;65532;52.124;5.480;2024-01-30T06:52:10;8.73;;;3.10;;
76636;SDS011;65532;52.124;5.480;2024-01-30T06:54:37;6.07;;;3.22;;
76636;SDS011;65532;52.124;5.480;2024-01-30T06:57:04;9.70;;;3.97;;
76636;SDS011;65532;52.124;5.480;2024-01-30T06:59:31;4.78;;;2.58;;
76636;SDS011;65532;52.124;5.480;2024-01-30T07:01:57;10.93;;;3.05;;
76636;SDS011;65532;52.124;5.480;2024-01-30T07:04:24;10.65;;;4.93;;
76636;SDS011;65532;52.124;5.480;2024-01-30T07:06:51;8.27;;;3.30;;
76636;SDS011;65532;52.124;5.480;2024-01-30T07:09:19;6.75;;;3.63;;
76636;SDS011;65532;52.124;5.480;2024-01-30T07:11:46;8.80;;;4.78;;
76636;SDS011;65532;52.124;5.480;2024-01-30T07:14:12;8.32;;;3.92;;
76636;SDS011;65532;52.124;5.480;2024-01-30T07:16:39;7.57;;;2.95;;
76636;SDS011;65532;52.124;5.480;2024-01-30T07:19:05;7.40;;;3.30;;
76636;SDS011;65532;52.124;5.480;2024-01-30T07:21:32;8.45;;;2.88;;
76636;SDS011;65532;52.124;5.480;2024-01-30T07:23:59;12.52;;;3.53;;
76636;SDS011;65532;52.124;5.480;2024-01-30T07:26:25;6.20;;;3.08;;
76636;SDS011;65532;52.124;5.480;2024-01-30T07:28:51;10.27;;;3.97;;
76636;SDS011;65532;52.124;5.480;2024-01-30T07:31:18;7.28;;;3.65;;
76636;SDS011;65532;52.124;5.480;2024-01-30T07:33:47;9.43;;;3.58;;
76636;SDS011;65532;52.124;5.480;2024-01-30T07:36:13;9.18;;;3.45;;
76636;SDS011;65532;52.124;5.480;2024-01-30T07:38:40;8.60;;;3.70;;
76636;SDS011;65532;52.124;5.480;2024-01-30T07:41:06;5.88;;;2.33;;
76636;SDS011;65532;52.124;5.480;2024-01-30T07:43:33;7.13;;;3.17;;
76636;SDS011;65532;52.124;5.480;2024-01-30T07:46:00;6.75;;;3.65;;
76636;SDS011;65532;52.124;5.480;2024-01-30T07:48:28;11.02;;;4.03;;
76636;SDS011;65532;52.124;5.480;2024-01-30T07:50:54;8.68;;;3.28;;
76636;SDS011;65532;52.124;5.480;2024-01-30T07:53:21;6.13;;;2.95;;
76636;SDS011;65532;52.124;5.480;2024-01-30T07:55:47;13.32;;;4.53;;
76636;SDS011;65532;52.124;5.480;2024-01-30T07:58:14;6.47;;;3.30;;
76636;SDS011;65532;52.124;5.480;2024-01-30T08:00:41;7.32;;;3.70;;
76636;SDS011;65532;52.124;5.480;2024-01-30T08:03:08;7.78;;;4.10;;
76636;SDS011;65532;52.124;5.480;2024-01-30T08:05:35;7.88;;;4.03;;
76636;SDS011;65532;52.124;5.480;2024-01-30T08:08:01;9.35;;;3.15;;
76636;SDS011;65532;52.124;5.480;2024-01-30T08:10:28;7.55;;;3.30;;
76636;SDS011;65532;52.124;5.480;2024-01-30T08:12:55;6.78;;;3.03;;
76636;SDS011;65532;52.124;5.480;2024-01-30T08:15:22;6.05;;;3.00;;
76636;SDS011;65532;52.124;5.480;2024-01-30T08:17:48;8.80;;;3.97;;
76636;SDS011;65532;52.124;5.480;2024-01-30T08:20:15;5.82;;;2.72;;
76636;SDS011;65532;52.124;5.480;2024-01-30T08:22:44;6.85;;;3.67;;
76636;SDS011;65532;52.124;5.480;2024-01-30T08:25:10;9.20;;;3.95;;
76636;SDS011;65532;52.124;5.480;2024-01-30T08:27:37;8.20;;;4.30;;
76636;SDS011;65532;52.124;5.480;2024-01-30T08:30:07;7.35;;;3.17;;
76636;SDS011;65532;52.124;5.480;2024-01-30T08:32:34;11.00;;;3.47;;
76636;SDS011;65532;52.124;5.480;2024-01-30T08:35:01;6.75;;;3.10;;
76636;SDS011;65532;52.124;5.480;2024-01-30T08:37:30;8.27;;;4.03;;
76636;SDS011;65532;52.124;5.480;2024-01-30T08:39:56;10.15;;;4.13;;
76636;SDS011;65532;52.124;5.480;2024-01-30T08:42:23;8.15;;;3.55;;
76636;SDS011;65532;52.124;5.480;2024-01-30T08:44:50;7.65;;;3.85;;
76636;SDS011;65532;52.124;5.480;2024-01-30T08:47:18;8.57;;;3.20;;
76636;SDS011;65532;52.124;5.480;2024-01-30T08:49:45;8.93;;;3.45;;
76636;SDS011;65532;52.124;5.480;2024-01-30T08:52:12;11.57;;;3.20;;
76636;SDS011;65532;52.124;5.480;2024-01-30T08:54:38;8.82;;;3.35;;
76636;SDS011;65532;52.124;5.480;2024-01-30T08:57:05;10.45;;;3.50;;
76636;SDS011;65532;52.124;5.480;2024-01-30T08:59:31;11.77;;;3.53;;
76636;SDS011;65532;52.124;5.480;2024-01-30T09:01:58;7.68;;;3.17;;
76636;SDS011;65532;52.124;5.480;2024-01-30T09:04:37;10.15;;;3.20;;
76636;SDS011;65532;52.124;5.480;2024-01-30T09:07:04;8.25;;;3.38;;
76636;SDS011;65532;52.124;5.480;2024-01-30T09:09:35;8.10;;;3.42;;
76636;SDS011;65532;52.124;5.480;2024-01-30T09:12:02;10.90;;;3.50;;
76636;SDS011;65532;52.124;5.480;2024-01-30T09:14:33;9.13;;;3.42;;
76636;SDS011;65532;52.124;5.480;2024-01-30T09:16:59;11.07;;;3.63;;
76636;SDS011;65532;52.124;5.480;2024-01-30T09:19:26;7.60;;;3.25;;
76636;SDS011;65532;52.124;5.480;2024-01-30T09:21:53;9.88;;;3.38;;
76636;SDS011;65532;52.124;5.480;2024-01-30T09:24:19;9.80;;;3.95;;
76636;SDS011;65532;52.124;5.480;2024-01-30T09:26:46;15.63;;;3.50;;
76636;SDS011;65532;52.124;5.480;2024-01-30T09:29:12;11.18;;;3.30;;
76636;SDS011;65532;52.124;5.480;2024-01-30T09:31:39;9.73;;;4.22;;
76636;SDS011;65532;52.124;5.480;2024-01-30T09:34:06;10.35;;;4.65;;
76636;SDS011;65532;52.124;5.480;2024-01-30T09:36:32;9.52;;;3.35;;
76636;SDS011;65532;52.124;5.480;2024-01-30T09:38:59;8.65;;;3.78;;
76636;SDS011;65532;52.124;5.480;2024-01-30T09:41:26;10.85;;;3.75;;
76636;SDS011;65532;52.124;5.480;2024-01-30T09:43:54;10.77;;;4.28;;
76636;SDS011;65532;52.124;5.480;2024-01-30T09:46:22;11.30;;;4.28;;
76636;SDS011;65532;52.124;5.480;2024-01-30T09:48:55;9.18;;;3.45;;
76636;SDS011;65532;52.124;5.480;2024-01-30T09:51:22;8.90;;;3.40;;
76636;SDS011;65532;52.124;5.480;2024-01-30T09:53:48;12.48;;;4.07;;
76636;SDS011;65532;52.124;5.480;2024-01-30T09:56:15;9.85;;;3.33;;
76636;SDS011;65532;52.124;5.480;2024-01-30T09:58:43;9.38;;;3.22;;
76636;SDS011;65532;52.124;5.480;2024-01-30T10:01:09;12.48;;;3.78;;
76636;SDS011;65532;52.124;5.480;2024-01-30T10:03:36;8.48;;;3.80;;
76636;SDS011;65532;52.124;5.480;2024-01-30T10:06:03;7.07;;;3.83;;
76636;SDS011;65532;52.124;5.480;2024-01-30T10:08:30;8.10;;;3.28;;
76636;SDS011;65532;52.124;5.480;2024-01-30T10:10:56;9.57;;;3.15;;
76636;SDS011;65532;52.124;5.480;2024-01-30T10:13:25;11.68;;;4.78;;
76636;SDS011;65532;52.124;5.480;2024-01-30T10:15:52;12.05;;;4.65;;
76636;SDS011;65532;52.124;5.480;2024-01-30T10:18:19;10.10;;;4.18;;
76636;SDS011;65532;52.124;5.480;2024-01-30T10:20:46;7.95;;;3.53;;
76636;SDS011;65532;52.124;5.480;2024-01-30T10:23:12;8.63;;;2.92;;
76636;SDS011;65532;52.124;5.480;2024-01-30T10:25:39;8.85;;;3.67;;
76636;SDS011;65532;52.124;5.480;2024-01-30T10:28:06;7.60;;;3.22;;
76636;SDS011;65532;52.124;5.480;2024-01-30T10:30:33;10.00;;;3.42;;
76636;SDS011;65532;52.124;5.480;2024-01-30T10:32:59;7.57;;;3.47;;
76636;SDS011;65532;52.124;5.480;2024-01-30T10:35:26;8.52;;;3.55;;
76636;SDS011;65532;52.124;5.480;2024-01-30T10:37:53;6.35;;;2.85;;
76636;SDS011;65532;52.124;5.480;2024-01-30T10:40:23;5.70;;;2.85;;
76636;SDS011;65532;52.124;5.480;2024-01-30T10:42:54;12.98;;;3.75;;
76636;SDS011;65532;52.124;5.480;2024-01-30T10:45:22;8.15;;;3.70;;
76636;SDS011;65532;52.124;5.480;2024-01-30T10:47:53;9.10;;;3.38;;
76636;SDS011;65532;52.124;5.480;2024-01-30T10:50:23;8.80;;;4.00;;
76636;SDS011;65532;52.124;5.480;2024-01-30T10:52:51;5.18;;;2.92;;
76636;SDS011;65532;52.124;5.480;2024-01-30T10:55:18;9.82;;;3.95;;
76636;SDS011;65532;52.124;5.480;2024-01-30T10:57:47;9.13;;;4.25;;
76636;SDS011;65532;52.124;5.480;2024-01-30T11:00:14;8.93;;;3.55;;
76636;SDS011;65532;52.124;5.480;2024-01-30T11:02:45;7.90;;;4.15;;
76636;SDS011;65532;52.124;5.480;2024-01-30T11:05:13;9.05;;;2.67;;
76636;SDS011;65532;52.124;5.480;2024-01-30T11:07:42;8.48;;;3.17;;
76636;SDS011;65532;52.124;5.480;2024-01-30T11:10:09;11.45;;;3.72;;
76636;SDS011;65532;52.124;5.480;2024-01-30T11:12:39;8.90;;;3.10;;
76636;SDS011;65532;52.124;5.480;2024-01-30T11:15:14;5.68;;;2.88;;
76636;SDS011;65532;52.124;5.480;2024-01-30T11:20:11;10.05;;;2.75;;
76636;SDS011;65532;52.124;5.480;2024-01-30T11:22:45;8.98;;;3.45;;
76636;SDS011;65532;52.124;5.480;2024-01-30T11:25:16;9.05;;;3.55;;
76636;SDS011;65532;52.124;5.480;2024-01-30T11:27:44;7.40;;;3.15;;
76636;SDS011;65532;52.124;5.480;2024-01-30T11:30:21;6.28;;;2.60;;
76636;SDS011;65532;52.124;5.480;2024-01-30T11:33:01;6.50;;;3.30;;
76636;SDS011;65532;52.124;5.480;2024-01-30T11:35:34;7.93;;;2.83;;
76636;SDS011;65532;52.124;5.480;2024-01-30T11:38:02;7.57;;;2.40;;
76636;SDS011;65532;52.124;5.480;2024-01-30T11:40:32;7.70;;;2.75;;
76636;SDS011;65532;52.124;5.480;2024-01-30T11:43:01;8.30;;;2.67;;
76636;SDS011;65532;52.124;5.480;2024-01-30T11:45:29;5.57;;;2.70;;
76636;SDS011;65532;52.124;5.480;2024-01-30T11:47:56;6.32;;;2.30;;
76636;SDS011;65532;52.124;5.480;2024-01-30T11:50:24;4.80;;;1.63;;
76636;SDS011;65532;52.124;5.480;2024-01-30T11:52:51;5.75;;;2.53;;
76636;SDS011;65532;52.124;5.480;2024-01-30T11:55:18;5.95;;;0.93;;
76636;SDS011;65532;52.124;5.480;2024-01-30T11:57:45;7.15;;;1.25;;
76636;SDS011;65532;52.124;5.480;2024-01-30T12:00:15;3.72;;;0.95;;
76636;SDS011;65532;52.124;5.480;2024-01-30T12:02:43;3.22;;;0.63;;
76636;SDS011;65532;52.124;5.480;2024-01-30T12:05:10;2.60;;;0.70;;
76636;SDS011;65532;52.124;5.480;2024-01-30T12:07:37;3.08;;;0.75;;
76636;SDS011;65532;52.124;5.480;2024-01-30T12:10:04;3.67;;;1.58;;
76636;SDS011;65532;52.124;5.480;2024-01-30T12:12:31;3.97;;;0.50;;
76636;SDS011;65532;52.124;5.480;2024-01-30T12:14:58;4.13;;;0.28;;
76636;SDS011;65532;52.124;5.480;2024-01-30T12:17:29;5.13;;;1.25;;
76636;SDS011;65532;52.124;5.480;2024-01-30T12:20:06;4.60;;;0.45;;
76636;SDS011;65532;52.124;5.480;2024-01-30T12:22:37;3.97;;;0.85;;
76636;SDS011;65532;52.124;5.480;2024-01-30T12:25:05;3.45;;;0.85;;
76636;SDS011;65532;52.124;5.480;2024-01-30T12:27:35;3.88;;;0.50;;
76636;SDS011;65532;52.124;5.480;2024-01-30T12:30:08;1.80;;;0.40;;
76636;SDS011;65532;52.124;5.480;2024-01-30T12:32:37;5.88;;;0.88;;
76636;SDS011;65532;52.124;5.480;2024-01-30T12:35:15;6.82;;;1.88;;
76636;SDS011;65532;52.124;5.480;2024-01-30T12:37:43;5.45;;;1.35;;
76636;SDS011;65532;52.124;5.480;2024-01-30T12:40:11;5.20;;;1.20;;
76636;SDS011;65532;52.124;5.480;2024-01-30T12:42:41;4.55;;;1.02;;
76636;SDS011;65532;52.124;5.480;2024-01-30T12:45:13;3.47;;;0.88;;
76636;SDS011;65532;52.124;5.480;2024-01-30T12:47:41;3.13;;;1.02;;
76636;SDS011;65532;52.124;5.480;2024-01-30T12:50:08;2.55;;;0.82;;
76636;SDS011;65532;52.124;5.480;2024-01-30T12:52:36;4.97;;;0.65;;
76636;SDS011;65532;52.124;5.480;2024-01-30T12:55:03;6.25;;;1.27;;
76636;SDS011;65532;52.124;5.480;2024-01-30T12:57:30;2.65;;;0.80;;
76636;SDS011;65532;52.124;5.480;2024-01-30T12:59:57;2.35;;;0.73;;
76636;SDS011;65532;52.124;5.480;2024-01-30T13:02:23;5.18;;;1.15;;
76636;SDS011;65532;52.124;5.480;2024-01-30T13:04:50;5.78;;;1.20;;
76636;SDS011;65532;52.124;5.480;2024-01-30T13:07:17;8.02;;;1.45;;
76636;SDS011;65532;52.124;5.480;2024-01-30T13:09:44;10.27;;;1.63;;
76636;SDS011;65532;52.124;5.480;2024-01-30T13:12:10;2.78;;;0.68;;
76636;SDS011;65532;52.124;5.480;2024-01-30T13:14:36;4.68;;;1.38;;
76636;SDS011;65532;52.124;5.480;2024-01-30T13:17:03;2.63;;;0.93;;
76636;SDS011;65532;52.124;5.480;2024-01-30T13:19:30;1.88;;;0.43;;
76636;SDS011;65532;52.124;5.480;2024-01-30T13:21:57;6.10;;;0.70;;
76636;SDS011;65532;52.124;5.480;2024-01-30T13:24:23;1.60;;;0.45;;
76636;SDS011;65532;52.124;5.480;2024-01-30T13:26:50;1.67;;;0.52;;
76636;SDS011;65532;52.124;5.480;2024-01-30T13:29:16;4.20;;;0.68;;
76636;SDS011;65532;52.124;5.480;2024-01-30T13:31:43;1.63;;;0.52;;
76636;SDS011;65532;52.124;5.480;2024-01-30T13:34:10;2.55;;;0.45;;
76636;SDS011;65532;52.124;5.480;2024-01-30T13:36:38;2.15;;;0.50;;
76636;SDS011;65532;52.124;5.480;2024-01-30T13:39:04;2.00;;;0.22;;
76636;SDS011;65532;52.124;5.480;2024-01-30T13:41:35;1.67;;;0.43;;
76636;SDS011;65532;52.124;5.480;2024-01-30T13:44:01;2.42;;;0.47;;
76636;SDS011;65532;52.124;5.480;2024-01-30T13:46:30;4.05;;;0.22;;
76636;SDS011;65532;52.124;5.480;2024-01-30T13:48:57;4.65;;;1.17;;
76636;SDS011;65532;52.124;5.480;2024-01-30T13:51:24;2.40;;;0.50;;
76636;SDS011;65532;52.124;5.480;2024-01-30T13:53:50;1.17;;;0.30;;
76636;SDS011;65532;52.124;5.480;2024-01-30T13:56:17;2.53;;;0.55;;
76636;SDS011;65532;52.124;5.480;2024-01-30T13:58:44;1.48;;;0.22;;
76636;SDS011;65532;52.124;5.480;2024-01-30T14:01:11;1.60;;;0.47;;
76636;SDS011;65532;52.124;5.480;2024-01-30T14:03:37;2.58;;;0.50;;
76636;SDS011;65532;52.124;5.480;2024-01-30T14:06:04;2.00;;;0.80;;
76636;SDS011;65532;52.124;5.480;2024-01-30T14:08:31;1.98;;;0.20;;
76636;SDS011;65532;52.124;5.480;2024-01-30T14:10:58;2.13;;;0.60;;
76636;SDS011;65532;52.124;5.480;2024-01-30T14:13:25;1.52;;;0.20;;
76636;SDS011;65532;52.124;5.480;2024-01-30T14:15:52;2.45;;;0.63;;
76636;SDS011;65532;52.124;5.480;2024-01-30T14:18:19;1.42;;;0.75;;
76636;SDS011;65532;52.124;5.480;2024-01-30T14:20:46;1.83;;;0.30;;
76636;SDS011;65532;52.124;5.480;2024-01-30T14:23:12;1.98;;;0.20;;
76636;SDS011;65532;52.124;5.480;2024-01-30T14:25:39;2.20;;;0.17;;
76636;SDS011;65532;52.124;5.480;2024-01-30T14:28:05;1.77;;;0.20;;
76636;SDS011;65532;52.124;5.480;2024-01-30T14:30:33;2.67;;;0.47;;
76636;SDS011;65532;52.124;5.480;2024-01-30T14:32:59;1.40;;;0.32;;
76636;SDS011;65532;52.124;5.480;2024-01-30T14:35:26;4.57;;;0.43;;
76636;SDS011;65532;52.124;5.480;2024-01-30T14:37:53;2.42;;;0.35;;
76636;SDS011;65532;52.124;5.480;2024-01-30T14:40:19;2.65;;;0.43;;
76636;SDS011;65532;52.124;5.480;2024-01-30T14:42:46;1.73;;;0.50;;
76636;SDS011;65532;52.124;5.480;2024-01-30T14:45:13;3.47;;;0.40;;
76636;SDS011;65532;52.124;5.480;2024-01-30T14:47:40;3.92;;;0.35;;